Time;durP1;ratioP1;P1;durP2;ratioP2;P2;SDS_P1;SDS_P2;PMS_P1;PMS_P2;Temp;Humidity;BMP_temperature;BMP_pressure;BME280_temperature;BME280_humidity;BME280_pressure;Samples;Min_cycle;Max_cycle;Signal;HPM_P1;HPM_P2
2023/04/01 00:01:57;;;;;;;5.47;2.20;;;;;;;16.02;51.87;93331.00;5018918;28;20424;-88
2023/04/01 00:04:23;;;;;;;4.00;2.13;;;;;;;16.01;52.54;93333.94;5018994;28;20025;-88
2023/04/01 00:06:48;;;;;;;4.75;2.03;;;;;;;15.86;51.70;93332.69;5005246;28;20432;-87
2023/04/01 00:09:14;;;;;;;4.18;2.00;;;;;;;15.68;51.21;93330.19;5002679;28;20029;-87
2023/04/01 00:11:40;;;;;;;6.40;2.13;;;;;;;16.10;49.92;93329.34;5003892;28;20041;-88
2023/04/01 00:14:06;;;;;;;3.40;1.90;;;;;;;15.89;49.98;93322.25;5002357;28;20026;-88
2023/04/01 00:16:31;;;;;;;4.38;1.98;;;;;;;16.23;49.60;93323.00;5002819;28;20115;-88
2023/04/01 00:18:57;;;;;;;9.82;2.10;;;;;;;16.27;49.66;93319.69;5018350;28;20463;-88
2023/04/01 00:21:22;;;;;;;4.68;2.10;;;;;;;16.68;48.14;93320.59;5002445;28;20328;-88
2023/04/01 00:23:49;;;;;;;5.57;1.98;;;;;;;16.80;47.87;93314.53;5004890;28;20336;-88
2023/04/01 00:26:18;;;;;;;10.68;2.05;;;;;;;16.75;47.71;93314.75;5018527;28;20033;-88
2023/04/01 00:28:44;;;;;;;4.65;1.70;;;;;;;16.69;46.26;93322.13;5020190;28;20034;-88
2023/04/01 00:31:13;;;;;;;4.85;1.73;;;;;;;16.35;46.31;93318.81;5018634;28;20030;-89
2023/04/01 00:33:40;;;;;;;10.13;1.65;;;;;;;16.67;45.79;93322.47;5003404;28;20034;-88
2023/04/01 00:36:14;;;;;;;4.63;1.45;;;;;;;17.19;44.41;93309.63;5002350;28;20489;-88
2023/04/01 00:38:41;;;;;;;5.10;1.70;;;;;;;17.07;43.81;93307.03;5019734;28;20034;-88
2023/04/01 00:41:06;;;;;;;3.78;1.48;;;;;;;16.87;45.15;93316.59;5002135;28;20029;-87
2023/04/01 00:43:32;;;;;;;7.93;2.13;;;;;;;16.70;44.63;93307.03;5018703;28;20056;-88
2023/04/01 00:45:57;;;;;;;3.17;1.60;;;;;;;16.81;43.48;93314.19;5018036;28;20042;-88
2023/04/01 00:48:26;;;;;;;1.67;1.17;;;;;;;16.89;43.73;93312.53;5018201;28;20069;-88
2023/04/01 00:51:00;;;;;;;5.80;1.50;;;;;;;17.12;42.84;93308.66;5004751;28;20037;-87
2023/04/01 00:53:25;;;;;;;2.72;1.52;;;;;;;16.78;42.96;93320.13;5001942;28;20030;-88
2023/04/01 00:55:58;;;;;;;2.83;1.38;;;;;;;16.50;44.56;93315.53;5004658;28;20083;-88
2023/04/01 00:58:25;;;;;;;3.30;1.40;;;;;;;16.71;42.74;93321.78;5038180;28;20030;-87
2023/04/01 01:00:52;;;;;;;3.20;1.38;;;;;;;16.39;42.74;93319.72;5020695;28;20429;-88
2023/04/01 01:03:17;;;;;;;3.60;1.60;;;;;;;16.31;42.94;93321.34;5017948;28;20424;-88
2023/04/01 01:06:11;;;;;;;5.45;1.55;;;;;;;16.75;42.56;93328.72;5037011;28;20083;-87
2023/04/01 01:08:56;;;;;;;;;;;;;;;16.90;42.79;93321.22;5021531;28;20045;-87
2023/04/01 01:11:22;;;;;;;;;;;;;;;16.51;44.32;93324.22;5038748;28;19913;-87
2023/04/01 01:13:56;;;;;;;3.25;1.58;;;;;;;16.10;44.90;93318.78;5020186;28;19959;-87
2023/04/01 01:16:27;;;;;;;5.03;1.52;;;;;;;15.41;46.14;93325.13;5017670;28;20026;-88
2023/04/01 01:19:11;;;;;;;3.17;1.40;;;;;;;15.43;46.02;93324.81;5004564;28;20025;-87
2023/04/01 01:22:10;;;;;;;3.78;1.13;;;;;;;15.86;44.95;93333.44;5038149;28;20092;-88
2023/04/01 01:24:41;;;;;;;1.98;1.13;;;;;;;15.46;45.26;93329.44;5038136;28;20025;-88
2023/04/01 01:27:11;;;;;;;2.67;1.15;;;;;;;15.49;43.38;93325.38;5017627;28;20128;-87
2023/04/01 01:30:15;;;;;;;1.73;1.10;;;;;;;15.85;42.17;93326.63;5025397;28;20025;-87
2023/04/01 01:33:27;;;;;;;1.48;1.00;;;;;;;16.21;40.94;93330.47;5038693;28;20033;-88
2023/04/01 01:35:54;;;;;;;2.08;1.02;;;;;;;15.53;41.53;93326.28;5057425;28;20503;-88
2023/04/01 01:38:27;;;;;;;2.08;0.80;;;;;;;16.16;40.10;93325.41;5037333;28;20037;-87
2023/04/01 01:40:54;;;;;;;2.88;1.00;;;;;;;16.00;40.55;93324.47;5023707;28;20028;-87
2023/04/01 01:43:24;;;;;;;3.05;0.98;;;;;;;16.03;40.56;93321.19;5036900;28;20021;-87
2023/04/01 01:45:53;;;;;;;3.13;1.15;;;;;;;16.56;39.64;93320.59;5039316;28;20026;-88
2023/04/01 01:48:19;;;;;;;2.70;0.90;;;;;;;16.16;39.14;93322.75;5020594;28;20458;-87
2023/04/01 01:50:46;;;;;;;2.42;1.00;;;;;;;15.83;40.33;93318.25;5038713;28;20060;-87
2023/04/01 01:53:12;;;;;;;5.18;0.93;;;;;;;15.58;40.81;93312.13;5036722;28;20411;-88
2023/04/01 01:55:40;;;;;;;4.07;1.05;;;;;;;15.89;41.19;93309.03;5021470;28;20115;-88
2023/04/01 01:58:14;;;;;;;1.45;0.80;;;;;;;15.64;40.15;93306.31;5036564;28;20087;-87
2023/04/01 02:00:42;;;;;;;5.38;1.02;;;;;;;15.61;40.91;93306.19;5037625;28;20386;-87
2023/04/01 02:03:08;;;;;;;1.35;0.65;;;;;;;15.89;40.14;93303.75;5036730;28;20029;-89
2023/04/01 02:05:34;;;;;;;2.08;0.90;;;;;;;15.69;40.61;93295.53;5037164;28;20029;-87
2023/04/01 02:08:06;;;;;;;2.25;0.90;;;;;;;15.64;40.25;93295.75;5036681;28;20026;-87
2023/04/01 02:10:35;;;;;;;2.72;0.70;;;;;;;15.28;40.67;93302.41;5035781;28;20037;-89
2023/04/01 02:13:07;;;;;;;2.25;0.75;;;;;;;16.17;39.56;93302.41;5036397;28;20600;-87
2023/04/01 02:15:38;;;;;;;5.05;0.82;;;;;;;15.99;40.00;93297.28;5036837;28;20134;-88
2023/04/01 02:18:04;;;;;;;1.45;0.70;;;;;;;15.56;40.98;93293.97;5036227;28;20035;-88
2023/04/01 02:20:30;;;;;;;2.30;0.60;;;;;;;15.58;40.37;93296.28;5019821;28;20033;-87
2023/04/01 02:22:57;;;;;;;4.65;1.13;;;;;;;15.33;41.24;93290.91;5019973;28;20029;-87
2023/04/01 02:25:33;;;;;;;3.17;0.80;;;;;;;15.59;40.54;93297.81;5036194;28;20453;-87
2023/04/01 02:27:59;;;;;;;1.40;0.80;;;;;;;15.35;40.73;93299.25;5039184;28;20079;-88
2023/04/01 02:30:27;;;;;;;0.98;0.65;;;;;;;15.54;40.94;93299.56;5039306;28;20025;-87
2023/04/01 02:32:53;;;;;;;2.33;0.85;;;;;;;15.59;40.44;93303.09;5039082;28;20074;-88
2023/04/01 02:35:19;;;;;;;4.05;0.90;;;;;;;15.23;40.96;93300.75;5019719;28;20123;-88
2023/04/01 02:37:48;;;;;;;3.92;0.95;;;;;;;15.46;40.21;93299.63;5037961;28;20025;-87
2023/04/01 02:40:14;;;;;;;3.33;0.93;;;;;;;15.50;40.18;93309.22;5056839;28;20064;-88
2023/04/01 02:42:40;;;;;;;1.15;0.70;;;;;;;15.43;39.80;93310.84;5056081;28;20024;-88
2023/04/01 02:45:06;;;;;;;1.63;0.82;;;;;;;14.88;41.13;93301.00;5028269;28;20347;-88
2023/04/01 02:47:31;;;;;;;4.53;0.88;;;;;;;15.02;40.74;93306.00;5024287;28;20041;-88
2023/04/01 02:49:59;;;;;;;2.42;0.80;;;;;;;14.80;40.52;93305.25;5024530;28;20335;-88
2023/04/01 02:52:25;;;;;;;5.68;1.27;;;;;;;14.72;40.53;93303.41;5019802;28;20107;-87
2023/04/01 02:54:51;;;;;;;3.53;0.82;;;;;;;14.45;40.77;93308.00;5019058;28;20132;-88
2023/04/01 02:57:17;;;;;;;3.05;1.05;;;;;;;14.98;40.27;93308.50;5002782;28;20382;-87
2023/04/01 02:59:42;;;;;;;2.47;1.10;;;;;;;15.16;40.32;93305.78;5019291;28;20037;-88
2023/04/01 03:02:08;;;;;;;2.38;0.88;;;;;;;15.48;40.12;93306.13;5019460;28;20036;-91
2023/04/01 03:04:33;;;;;;;2.10;0.90;;;;;;;14.35;42.17;93311.03;5019532;28;20087;-90
2023/04/01 03:06:59;;;;;;;1.83;0.95;;;;;;;14.21;43.09;93319.91;5021762;28;20466;-90
2023/04/01 03:09:24;;;;;;;1.90;0.88;;;;;;;14.25;42.41;93320.81;5015986;28;20061;-91
2023/04/01 03:11:49;;;;;;;2.53;0.82;;;;;;;14.59;41.89;93317.56;5002134;28;20036;-90
2023/04/01 03:14:15;;;;;;;2.95;0.70;;;;;;;13.67;43.82;93302.69;5015683;28;20343;-90
2023/04/01 03:16:40;;;;;;;2.28;0.80;;;;;;;13.41;43.49;93300.81;5000878;28;20030;-91
2023/04/01 03:19:06;;;;;;;2.58;0.77;;;;;;;13.98;42.05;93311.44;5015849;28;20032;-90
2023/04/01 03:21:31;;;;;;;5.95;0.73;;;;;;;14.86;40.71;93302.41;5001132;28;20026;-90
2023/04/01 03:23:57;;;;;;;1.10;0.70;;;;;;;15.02;40.15;93313.16;5019503;28;20423;-90
2023/04/01 03:26:22;;;;;;;1.63;0.85;;;;;;;14.61;41.08;93324.06;5003310;28;20181;-90
2023/04/01 03:29:11;;;;;;;1.67;0.70;;;;;;;15.48;39.89;93326.47;5021972;28;20037;-90
2023/04/01 03:31:37;;;;;;;4.75;0.95;;;;;;;14.95;40.86;93313.69;5020611;28;20411;-91
2023/04/01 03:34:02;;;;;;;2.38;0.90;;;;;;;15.17;40.08;93312.59;5003311;28;20040;-91
2023/04/01 03:36:28;;;;;;;2.47;0.77;;;;;;;15.06;40.31;93327.25;5019287;28;20495;-90
2023/04/01 03:38:53;;;;;;;2.38;0.90;;;;;;;15.01;40.32;93320.31;5006263;28;20029;-91
2023/04/01 03:41:18;;;;;;;2.40;0.90;;;;;;;15.09;40.28;93316.06;5003059;28;20030;-90
2023/04/01 03:43:44;;;;;;;1.83;0.73;;;;;;;14.93;40.03;93321.16;5004912;28;20029;-91
2023/04/01 03:46:10;;;;;;;4.90;1.25;;;;;;;15.06;40.48;93321.97;5002707;28;20049;-90
2023/04/01 03:48:35;;;;;;;1.50;0.75;;;;;;;14.30;41.37;93327.78;5003658;28;20034;-90
2023/04/01 03:51:01;;;;;;;3.92;0.90;;;;;;;14.33;41.57;93323.72;5018892;28;20440;-90
2023/04/01 03:53:27;;;;;;;1.33;0.65;;;;;;;14.78;40.45;93317.97;5003819;28;20032;-91
2023/04/01 03:55:52;;;;;;;1.30;0.93;;;;;;;14.43;40.95;93336.56;5038442;28;20033;-90
2023/04/01 03:58:19;;;;;;;0.90;0.68;;;;;;;14.78;40.62;93328.53;5019105;28;20343;-90
2023/04/01 04:00:54;;;;;;;1.63;0.63;;;;;;;14.92;40.21;93336.19;5020915;28;20033;-91
2023/04/01 04:03:20;;;;;;;1.02;0.70;;;;;;;14.76;39.95;93333.31;5034857;28;20029;-90
2023/04/01 04:05:49;;;;;;;0.60;0.45;;;;;;;15.31;38.91;93330.03;5020991;28;20036;-91
2023/04/01 04:08:15;;;;;;;2.28;0.52;;;;;;;15.04;39.20;93326.81;5018947;28;20068;-91
2023/04/01 04:10:41;;;;;;;2.17;0.77;;;;;;;14.81;39.49;93329.72;5020117;28;20387;-91
2023/04/01 04:13:06;;;;;;;3.60;1.00;;;;;;;14.92;39.07;93330.13;5018772;28;20034;-91
2023/04/01 04:15:33;;;;;;;1.67;0.55;;;;;;;14.88;39.04;93327.38;5019115;28;20036;-91
2023/04/01 04:17:58;;;;;;;0.68;0.50;;;;;;;14.86;38.51;93337.47;5018542;28;20088;-91
2023/04/01 04:20:24;;;;;;;2.67;0.63;;;;;;;15.05;38.16;93334.38;5018530;28;20037;-90
2023/04/01 04:22:50;;;;;;;1.70;0.65;;;;;;;14.58;39.11;93337.88;5005086;28;20465;-91
2023/04/01 04:25:15;;;;;;;1.55;0.70;;;;;;;14.57;38.84;93338.97;5018606;28;20038;-90
2023/04/01 04:27:41;;;;;;;3.53;0.57;;;;;;;14.57;38.14;93341.63;5003403;28;20444;-92
2023/04/01 04:30:07;;;;;;;2.47;0.55;;;;;;;14.56;38.38;93343.47;5034722;28;20371;-91
2023/04/01 04:32:34;;;;;;;1.55;0.60;;;;;;;14.49;38.35;93345.06;5018176;28;20076;-90
2023/04/01 04:34:59;;;;;;;3.28;0.60;;;;;;;14.26;39.25;93345.28;5034709;28;20352;-90
2023/04/01 04:37:25;;;;;;;3.58;0.68;;;;;;;14.28;38.62;93345.75;5018389;28;20030;-91
2023/04/01 04:39:51;;;;;;;1.95;0.50;;;;;;;14.22;39.59;93349.63;5024395;28;20443;-91
2023/04/01 04:42:16;;;;;;;1.58;0.60;;;;;;;14.16;39.23;93354.31;5037959;28;20037;-90
2023/04/01 04:44:42;;;;;;;3.00;1.70;;;;;;;14.13;39.06;93353.09;5039160;28;20152;-90
2023/04/01 04:47:08;;;;;;;1.17;0.52;;;;;;;13.74;40.17;93360.13;5015590;28;20054;-90
2023/04/01 04:49:34;;;;;;;1.33;0.70;;;;;;;13.52;41.26;93355.81;5035648;28;20035;-90
2023/04/01 04:52:00;;;;;;;1.00;0.70;;;;;;;13.18;42.63;93357.28;5037294;28;20033;-91
2023/04/01 04:54:25;;;;;;;4.05;1.05;;;;;;;13.41;42.10;93363.97;5037640;28;20080;-91
2023/04/01 04:56:52;;;;;;;2.33;0.77;;;;;;;13.28;43.02;93367.53;5024655;28;20039;-90
2023/04/01 04:59:17;;;;;;;1.15;0.77;;;;;;;13.41;42.67;93373.72;5021345;28;20064;-91
2023/04/01 05:01:43;;;;;;;3.30;0.88;;;;;;;13.47;42.63;93379.63;5039303;28;20056;-91
2023/04/01 05:04:08;;;;;;;2.53;0.80;;;;;;;13.25;43.80;93384.69;5022229;28;20112;-91
2023/04/01 05:06:34;;;;;;;2.17;0.98;;;;;;;12.99;43.92;93379.38;5001279;28;20038;-90
2023/04/01 05:08:59;;;;;;;2.90;0.77;;;;;;;13.03;43.38;93380.31;5020220;28;20033;-90
2023/04/01 05:11:25;;;;;;;3.65;0.80;;;;;;;13.23;43.10;93380.84;5020999;28;20423;-90
2023/04/01 05:13:51;;;;;;;1.27;0.88;;;;;;;13.34;42.92;93382.09;5024054;28;20025;-91
2023/04/01 05:16:19;;;;;;;2.17;0.65;;;;;;;13.23;43.13;93378.97;5037434;28;20025;-91
2023/04/01 05:18:45;;;;;;;1.75;0.60;;;;;;;12.95;42.68;93383.72;5039665;28;20386;-90
2023/04/01 05:21:13;;;;;;;1.50;0.70;;;;;;;13.58;41.83;93378.25;5037091;28;20035;-91
2023/04/01 05:23:38;;;;;;;3.28;0.70;;;;;;;13.65;41.93;93383.03;5038333;28;20025;-91
2023/04/01 05:26:12;;;;;;;0.80;0.52;;;;;;;13.95;41.45;93385.78;5037019;28;20033;-91
2023/04/01 05:28:47;;;;;;;2.22;0.98;;;;;;;13.63;41.33;93391.25;5038145;28;20034;-91
2023/04/01 05:31:12;;;;;;;1.08;0.70;;;;;;;13.61;41.83;93393.41;5036916;28;20048;-90
2023/04/01 05:33:38;;;;;;;0.88;0.65;;;;;;;13.93;41.05;93394.03;5021726;28;20069;-91
2023/04/01 05:36:08;;;;;;;2.20;0.50;;;;;;;14.33;39.37;93402.75;5020571;28;20124;-90
2023/04/01 05:38:37;;;;;;;1.95;0.60;;;;;;;14.70;38.26;93397.84;5037334;28;20029;-90
2023/04/01 05:41:03;;;;;;;1.70;0.57;;;;;;;14.46;40.52;93401.78;5020483;28;20029;-91
2023/04/01 05:43:29;;;;;;;0.90;0.60;;;;;;;14.48;39.99;93404.13;5036727;28;20036;-90
2023/04/01 05:45:55;;;;;;;4.65;0.80;;;;;;;14.54;38.39;93398.38;5036755;28;20130;-91
2023/04/01 05:48:20;;;;;;;2.17;0.50;;;;;;;15.01;36.91;93407.34;5036643;28;20041;-90
2023/04/01 05:50:46;;;;;;;1.02;0.63;;;;;;;15.07;38.19;93403.44;5022449;28;20037;-90
2023/04/01 05:53:11;;;;;;;1.60;0.43;;;;;;;15.27;35.09;93411.69;5020375;28;20120;-90
2023/04/01 05:55:37;;;;;;;2.28;0.60;;;;;;;14.91;38.22;93410.34;5037688;28;20033;-91
2023/04/01 05:58:02;;;;;;;1.25;0.50;;;;;;;15.43;34.27;93419.84;5020124;28;20037;-90
2023/04/01 06:00:28;;;;;;;3.33;0.70;;;;;;;15.46;37.39;93410.50;5036336;28;20037;-90
2023/04/01 06:02:53;;;;;;;1.45;0.45;;;;;;;15.77;35.45;93419.88;5039523;28;20103;-91
2023/04/01 06:05:21;;;;;;;2.00;0.50;;;;;;;16.19;34.32;93419.09;5013105;28;20041;-93
2023/04/01 06:07:47;;;;;;;2.47;0.50;;;;;;;16.01;35.96;93416.63;5002620;28;20038;-90
2023/04/01 06:10:17;;;;;;;0.65;0.40;;;;;;;15.65;34.96;93410.84;5000308;28;20360;-91
2023/04/01 06:12:55;;;;;;;0.80;0.45;;;;;;;16.60;35.33;93412.16;5002300;28;20351;-90
2023/04/01 06:15:26;;;;;;;1.65;0.68;;;;;;;16.07;33.15;93409.28;5031152;28;20033;-89
2023/04/01 06:18:14;;;;;;;1.52;0.40;;;;;;;16.18;32.60;93414.91;5026578;28;20029;-89
2023/04/01 06:21:04;;;;;;;0.88;0.40;;;;;;;16.78;31.95;93420.63;5027604;28;20040;-89
2023/04/01 06:23:38;;;;;;;0.95;0.50;;;;;;;16.84;31.70;93413.25;5057068;28;20087;-89
2023/04/01 06:26:50;;;;;;;1.00;0.43;;;;;;;16.18;31.96;93414.91;5056711;28;20044;-89
2023/04/01 06:29:44;;;;;;;1.20;0.50;;;;;;;17.01;31.96;93416.84;5056259;28;20040;-89
2023/04/01 06:32:30;;;;;;;3.78;0.50;;;;;;;16.97;31.65;93414.06;5057152;28;20033;-89
2023/04/01 06:35:09;;;;;;;0.73;0.40;;;;;;;16.12;32.76;93409.06;5034765;28;20091;-90
2023/04/01 06:38:03;;;;;;;1.17;0.40;;;;;;;16.70;32.57;93421.53;5056907;28;20035;-89
2023/04/01 06:40:51;;;;;;;0.60;0.40;;;;;;;16.94;32.74;93433.25;5052216;28;20342;-90
2023/04/01 06:43:26;;;;;;;4.70;0.47;;;;;;;16.84;32.17;93431.03;5045061;28;20045;-90
2023/04/01 06:45:56;;;;;;;1.25;0.50;;;;;;;17.66;32.36;93416.09;5036822;28;20037;-91
2023/04/01 06:48:47;;;;;;;3.40;0.70;;;;;;;17.51;31.88;93420.97;5016109;28;20436;-89
2023/04/01 06:51:15;;;;;;;0.88;0.30;;;;;;;17.65;33.34;93415.34;5019442;28;20441;-90
2023/04/01 06:53:57;;;;;;;2.38;0.40;;;;;;;17.85;30.07;93418.13;5019667;28;20035;-90
2023/04/01 06:56:26;;;;;;;0.43;0.38;;;;;;;18.45;29.12;93416.69;5015475;28;20037;-91
2023/04/01 06:59:17;;;;;;;2.65;0.38;;;;;;;18.55;30.11;93421.47;5019025;28;20123;-90
2023/04/01 07:02:09;;;;;;;0.40;0.30;;;;;;;18.03;27.54;93413.34;5017579;28;20083;-91
2023/04/01 07:04:42;;;;;;;0.60;0.32;;;;;;;18.17;28.58;93414.84;5033990;28;20450;-90
2023/04/01 07:07:16;;;;;;;1.63;0.80;;;;;;;18.10;29.37;93423.38;5015573;28;20396;-91
2023/04/01 07:09:48;;;;;;;1.17;0.60;;;;;;;17.88;29.45;93424.66;5034771;28;20044;-90
2023/04/01 07:12:38;;;;;;;1.48;0.50;;;;;;;18.25;28.95;93423.75;5015922;28;20076;-90
2023/04/01 07:15:16;;;;;;;1.75;0.40;;;;;;;18.16;28.59;93429.22;5013959;28;20336;-91
2023/04/01 07:17:42;;;;;;;0.73;0.30;;;;;;;18.54;28.50;93430.56;5019157;28;20097;-91
2023/04/01 07:20:31;;;;;;;0.70;0.20;;;;;;;18.78;28.01;93429.63;5015680;28;20053;-90
2023/04/01 07:22:58;;;;;;;1.50;0.30;;;;;;;19.19;28.61;93439.31;5002773;28;20029;-91
2023/04/01 07:25:58;;;;;;;1.02;0.40;;;;;;;19.56;27.33;93436.34;5036475;28;20025;-91
2023/04/01 07:28:24;;;;;;;0.55;0.30;;;;;;;19.34;27.88;93435.88;4984115;28;20041;-91
2023/04/01 07:30:59;;;;;;;0.95;0.50;;;;;;;19.46;28.83;93442.19;5018299;28;20336;-91
2023/04/01 07:33:36;;;;;;;2.67;0.30;;;;;;;19.09;28.07;93442.50;5015871;28;20030;-91
2023/04/01 07:36:14;;;;;;;0.40;0.30;;;;;;;19.10;27.31;93433.44;5002598;28;20424;-91
2023/04/01 07:38:46;;;;;;;0.45;0.25;;;;;;;19.17;25.86;93437.03;5018713;28;20045;-90
2023/04/01 07:41:34;;;;;;;0.30;0.20;;;;;;;19.85;27.87;93431.63;5036197;28;20037;-90
2023/04/01 07:44:12;;;;;;;0.30;0.20;;;;;;;19.73;27.84;93431.75;5018679;28;20030;-89
2023/04/01 07:46:56;;;;;;;0.40;0.22;;;;;;;19.74;26.88;93433.28;5018732;28;20339;-91
2023/04/01 07:49:29;;;;;;;1.70;0.40;;;;;;;20.12;26.87;93431.03;5015501;28;20044;-90
2023/04/01 07:52:18;;;;;;;3.10;0.30;;;;;;;19.75;26.32;93438.25;5018440;28;20030;-90
2023/04/01 07:55:12;;;;;;;0.82;0.20;;;;;;;19.40;24.95;93431.06;5018429;28;20025;-91
2023/04/01 07:58:12;;;;;;;0.60;0.40;;;;;;;19.27;24.88;93438.38;5016432;28;20454;-90
2023/04/01 08:00:50;;;;;;;3.75;0.20;;;;;;;19.05;25.07;93435.22;4997047;28;20038;-90
2023/04/01 08:03:21;;;;;;;0.20;0.20;;;;;;;19.66;24.12;93429.72;5036115;28;20418;-90
2023/04/01 08:06:05;;;;;;;0.82;0.17;;;;;;;19.41;24.73;93437.16;5036073;28;20087;-90
2023/04/01 08:08:33;;;;;;;;;;;;;;;19.77;25.30;93429.94;5037832;28;20033;-91
2023/04/01 08:11:32;;;;;;;0.63;0.20;;;;;;;20.17;25.13;93430.75;5039156;28;19913;-92
2023/04/01 08:14:26;;;;;;;1.13;0.30;;;;;;;19.68;24.00;93437.34;5022005;28;20451;-89
2023/04/01 08:17:08;;;;;;;0.28;0.20;;;;;;;19.58;24.91;93442.09;5039541;28;20033;-90
2023/04/01 08:20:03;;;;;;;0.20;0.20;;;;;;;20.03;24.23;93439.22;5019164;28;20443;-90
2023/04/01 08:22:42;;;;;;;0.98;0.50;;;;;;;19.68;24.15;93426.72;5018472;28;20116;-90
2023/04/01 08:25:15;;;;;;;0.32;0.30;;;;;;;19.10;25.13;93430.78;5039262;28;20430;-90
2023/04/01 08:27:48;;;;;;;3.45;0.30;;;;;;;19.80;24.85;93428.47;5019814;28;20025;-90
2023/04/01 08:30:23;;;;;;;0.95;0.60;;;;;;;18.76;25.48;93423.91;5017860;28;20022;-90
2023/04/01 08:32:57;;;;;;;1.92;0.30;;;;;;;19.35;24.94;93437.41;5020775;28;20128;-90
2023/04/01 08:35:37;;;;;;;0.70;0.35;;;;;;;19.29;24.84;93422.88;5002155;28;20058;-89
2023/04/01 08:38:11;;;;;;;4.03;0.30;;;;;;;19.40;25.25;93422.34;5014556;28;20014;-90
2023/04/01 08:40:56;;;;;;;1.15;0.32;;;;;;;19.40;26.22;93436.38;5021506;28;20026;-90
2023/04/01 08:43:31;;;;;;;0.98;0.20;;;;;;;19.47;24.83;93420.59;5002008;28;20065;-89
2023/04/01 08:46:06;;;;;;;0.28;0.28;;;;;;;19.81;23.51;93428.13;5031476;28;20033;-89
2023/04/01 08:49:11;;;;;;;0.20;0.20;;;;;;;21.01;24.12;93436.41;5021885;28;20423;-90
2023/04/01 08:51:42;;;;;;;1.08;0.25;;;;;;;20.81;24.53;93438.34;5054491;28;20044;-89
2023/04/01 08:54:33;;;;;;;0.65;0.38;;;;;;;19.99;23.54;93435.72;5051326;28;20167;-90
2023/04/01 08:57:11;;;;;;;2.38;0.30;;;;;;;19.54;24.55;93430.63;5041164;28;20025;-90
2023/04/01 08:59:48;;;;;;;1.67;0.32;;;;;;;19.61;24.67;93432.66;5057580;28;20029;-89
2023/04/01 09:02:35;;;;;;;0.85;0.40;;;;;;;19.86;26.24;93440.34;5052056;28;20031;-88
2023/04/01 09:05:32;;;;;;;0.50;0.20;;;;;;;19.81;24.74;93432.66;5057643;28;20176;-89
2023/04/01 09:08:00;;;;;;;1.75;0.30;;;;;;;20.75;23.55;93434.44;5058424;28;20029;-89
2023/04/01 09:10:45;;;;;;;2.58;0.30;;;;;;;21.79;23.71;93439.78;5053193;28;20028;-90
2023/04/01 09:13:32;;;;;;;0.60;0.20;;;;;;;20.48;23.43;93434.34;5057309;28;20426;-90
2023/04/01 09:16:07;;;;;;;2.30;0.22;;;;;;;21.35;24.38;93432.31;5049539;28;20119;-89
2023/04/01 09:18:55;;;;;;;1.05;0.30;;;;;;;21.69;23.07;93427.13;5057979;28;20373;-89
2023/04/01 09:21:34;;;;;;;0.75;0.20;;;;;;;21.67;23.60;93432.81;5027749;28;20135;-89
2023/04/01 09:24:40;;;;;;;0.52;0.30;;;;;;;21.98;23.81;93432.81;5024357;28;20025;-90
2023/04/01 09:27:24;;;;;;;0.40;0.15;;;;;;;22.08;24.36;93453.47;4994831;28;20041;-89
2023/04/01 09:30:06;;;;;;;1.55;0.35;;;;;;;21.28;22.93;93433.75;5058014;28;20029;-89
2023/04/01 09:33:09;;;;;;;0.45;0.22;;;;;;;20.26;23.04;93428.63;5037368;28;20029;-89
2023/04/01 09:35:45;;;;;;;1.50;0.25;;;;;;;20.60;23.03;93428.88;5037722;28;20032;-89
2023/04/01 09:38:26;;;;;;;0.20;0.10;;;;;;;21.47;25.31;93445.44;5037087;28;20029;-90
2023/04/01 09:40:54;;;;;;;0.65;0.30;;;;;;;21.81;23.68;93444.78;5057352;28;20350;-89
2023/04/01 09:43:45;;;;;;;0.30;0.20;;;;;;;21.01;23.94;93438.28;5036882;28;20026;-91
2023/04/01 09:46:26;;;;;;;0.43;0.20;;;;;;;21.32;21.55;93453.22;5013843;28;20051;-89
2023/04/01 09:49:14;;;;;;;2.13;0.30;;;;;;;20.79;19.99;93439.78;5039818;28;20029;-89
2023/04/01 09:51:52;;;;;;;1.08;0.20;;;;;;;21.51;19.88;93443.59;5037921;28;20033;-89
2023/04/01 09:54:32;;;;;;;0.43;0.10;;;;;;;21.45;19.72;93431.72;5036714;28;20025;-89
2023/04/01 09:57:34;;;;;;;1.20;0.40;;;;;;;21.65;21.61;93436.91;5049685;28;20052;-90
2023/04/01 10:00:18;;;;;;;0.85;0.30;;;;;;;22.08;23.38;93432.16;5026915;28;20036;-90
2023/04/01 10:03:21;;;;;;;0.35;0.30;;;;;;;22.34;22.15;93433.19;5038489;28;20343;-91
2023/04/01 10:06:03;;;;;;;2.00;0.30;;;;;;;22.37;22.81;93424.47;5038765;28;20063;-92
2023/04/01 10:08:35;;;;;;;0.82;0.20;;;;;;;21.68;21.26;93428.25;5019994;28;20065;-90
2023/04/01 10:11:06;;;;;;;0.52;0.38;;;;;;;21.87;22.63;93430.00;5049741;28;20029;-91
2023/04/01 10:13:59;;;;;;;2.28;0.40;;;;;;;22.79;23.32;93433.28;5036462;28;20037;-90
2023/04/01 10:17:02;;;;;;;0.75;0.30;;;;;;;22.90;21.72;93412.00;5036199;28;20127;-91
2023/04/01 10:20:00;;;;;;;2.60;0.47;;;;;;;22.99;22.47;93420.50;5053346;28;20109;-90
2023/04/01 10:22:57;;;;;;;1.02;0.30;;;;;;;22.81;22.55;93417.66;5011487;28;20346;-90
2023/04/01 10:25:33;;;;;;;0.45;0.10;;;;;;;23.18;21.01;93416.03;5006222;28;20077;-91
2023/04/01 10:28:56;;;;;;;2.50;0.30;;;;;;;23.05;21.82;93417.47;5028451;28;20039;-91
2023/04/01 10:31:44;;;;;;;2.42;0.40;;;;;;;22.49;20.36;93409.34;4987044;28;20042;-91
2023/04/01 10:34:20;;;;;;;1.00;0.30;;;;;;;22.71;21.46;93407.66;4972971;28;20100;-92
2023/04/01 10:36:58;;;;;;;0.25;0.13;;;;;;;22.82;21.00;93400.50;5023696;28;20049;-90
2023/04/01 10:39:33;;;;;;;0.90;0.22;;;;;;;22.11;19.68;93407.44;5016052;28;20030;-91
2023/04/01 10:42:10;;;;;;;1.13;0.20;;;;;;;22.28;22.90;93399.97;5029044;28;20399;-90
2023/04/01 10:44:55;;;;;;;0.82;0.30;;;;;;;22.47;21.50;93401.69;5016863;28;20033;-90
2023/04/01 10:47:57;;;;;;;0.98;0.20;;;;;;;21.93;21.07;93401.09;5036679;28;20030;-89
2023/04/01 10:50:41;;;;;;;0.30;0.20;;;;;;;22.81;19.90;93401.63;5032358;28;20036;-91
2023/04/01 10:53:21;;;;;;;0.90;0.20;;;;;;;23.39;22.30;93402.06;5030237;28;20025;-90
2023/04/01 10:56:01;;;;;;;3.63;0.20;;;;;;;22.80;22.07;93394.00;5001989;28;20321;-90
2023/04/01 10:58:48;;;;;;;0.40;0.20;;;;;;;23.24;21.01;93397.75;4999609;28;20026;-91
2023/04/01 11:01:51;;;;;;;0.20;0.20;;;;;;;23.53;21.61;93392.59;5019109;28;20084;-91
2023/04/01 11:04:38;;;;;;;0.55;0.17;;;;;;;22.90;20.57;93395.22;5019182;28;20133;-91
2023/04/01 11:07:22;;;;;;;2.30;0.25;;;;;;;22.49;18.96;93393.34;5018790;28;20029;-90
2023/04/01 11:10:05;;;;;;;;;;;;;;;21.75;21.17;93393.66;5036863;28;20040;-90
2023/04/01 11:12:48;;;;;;;0.47;0.20;;;;;;;22.64;20.08;93388.91;5016032;28;19913;-90
2023/04/01 11:15:42;;;;;;;0.52;0.20;;;;;;;22.98;19.94;93389.56;5015810;28;20030;-90
2023/04/01 11:18:32;;;;;;;0.20;0.10;;;;;;;23.10;19.77;93390.44;5036419;28;20530;-90
2023/04/01 11:21:12;;;;;;;0.28;0.20;;;;;;;23.71;20.07;93382.00;5028770;28;20033;-91
2023/04/01 11:24:05;;;;;;;0.45;0.17;;;;;;;22.79;18.68;93384.44;5016826;28;20459;-90
2023/04/01 11:26:45;;;;;;;2.83;0.13;;;;;;;22.47;22.42;93369.69;5015272;28;20144;-89
2023/04/01 11:29:46;;;;;;;0.90;0.22;;;;;;;23.07;19.41;93377.78;5044163;28;20028;-90
2023/04/01 11:32:35;;;;;;;0.35;0.20;;;;;;;23.65;20.69;93370.91;5056339;28;20037;-91
2023/04/01 11:35:32;;;;;;;0.63;0.20;;;;;;;23.04;19.21;93373.97;5047875;28;20033;-90
2023/04/01 11:38:18;;;;;;;1.58;0.20;;;;;;;22.45;20.24;93378.03;5056264;28;20130;-90
2023/04/01 11:40:51;;;;;;;1.02;0.32;;;;;;;22.78;20.43;93381.03;5053469;28;20040;-91
2023/04/01 11:43:40;;;;;;;0.60;0.20;;;;;;;22.49;19.91;93367.44;5052939;28;20031;-89
2023/04/01 11:46:08;;;;;;;0.15;0.15;;;;;;;22.64;20.48;93370.97;5029873;28;20048;-89
2023/04/01 11:48:44;;;;;;;0.98;0.20;;;;;;;23.00;20.29;93362.47;5056107;28;20123;-90
2023/04/01 11:51:13;;;;;;;0.15;0.15;;;;;;;22.56;19.71;93361.41;5052565;28;20029;-90
2023/04/01 11:54:06;;;;;;;0.90;0.20;;;;;;;23.94;20.26;93359.53;5058774;28;20056;-90
2023/04/01 11:57:10;;;;;;;0.30;0.17;;;;;;;23.55;19.25;93353.69;5055492;28;20025;-90
2023/04/01 11:59:53;;;;;;;1.38;0.32;;;;;;;22.40;19.32;93354.38;5004918;28;20041;-90
2023/04/01 12:02:28;;;;;;;0.90;0.30;;;;;;;22.87;21.06;93360.09;5059841;28;20029;-90
2023/04/01 12:05:12;;;;;;;1.20;0.30;;;;;;;22.59;19.23;93360.66;5041903;28;20056;-90
2023/04/01 12:07:52;;;;;;;0.30;0.10;;;;;;;21.43;21.39;93362.03;5059577;28;20064;-90
2023/04/01 12:10:19;;;;;;;0.52;0.15;;;;;;;21.12;20.72;93350.59;5053385;28;20071;-89
2023/04/01 12:12:58;;;;;;;0.20;0.20;;;;;;;21.33;20.83;93350.88;5058405;28;20029;-89